• Join FlightAware (Why Join?)
  • Login
  • US Flag 
Rudolph Flight #1: Arrived! 
01:43PM EST


 

Airport Tracker/Info


-or-


 

Live Flight TrackerFlight Track Log ✈ SKW6345 ✈ 27-Jun-2013 ✈ KSFO - KBZN

Flight Track Log - Related Links

Times and Time Zones

All times are in EDT time to prevent confusion due to time zone crossing. See the SKW6345 flight status page for this flight to view local times or setup timezone preferences in your user account.

Time Position Orientation Groundspeed Altitude Reporting Facility
EDT Latitude Longitude Course Direction KTS MPH feet Rate Location/Type
11:14AM 37.6500 -122.3333 38° Northeast 176 203 1,900  Level Northern Cal TRACON
11:15AM 37.7000 -122.2833 38° Northeast 240 276 3,500 1,920 Climbing Northern Cal TRACON
11:16AM 37.6237 -122.3987 120° Southeast  Level FlightAware Approximate
11:16AM 37.7500 -122.2167 47° Northeast 305 351 5,600  Level Northern Cal TRACON
11:17AM 37.7027 -122.2807 38° Northeast  Level FlightAware Approximate
11:17AM 37.8167 -122.1500 38° Northeast 289 333 7,800  Level Northern Cal TRACON
11:18AM 37.8101 -122.1732 38° Northeast  Level FlightAware Approximate
11:18AM 37.8667 -122.1000 38° Northeast 303 349 9,500  Level Northern Cal TRACON
11:19AM 37.9176 -122.0657 38° Northeast  Level FlightAware Approximate
11:19AM 37.9303 -122.0439 35° Northeast 315 362 10,800  Level Oakland Center
11:20AM 38.0189 -121.9589 37° Northeast 334 384 12,800 1,800 Climbing Oakland Center
11:21AM 38.0958 -121.8864 37° Northeast 344 396 14,500 1,620 Climbing Oakland Center
11:22AM 38.1736 -121.8128 37° Northeast 348 400 16,200 1,560 Climbing Oakland Center
11:23AM 38.2503 -121.7372 38° Northeast 351 404 17,700 1,320 Climbing Oakland Center
11:24AM 38.3219 -121.6503 44° Northeast 355 409 19,000 1,200 Climbing Oakland Center
11:25AM 38.3956 -121.5625 43° Northeast 362 417 20,200 900 Climbing Oakland Center
11:26AM 38.4722 -121.4733 42° Northeast 373 429 20,900 780 Climbing Oakland Center
11:27AM 38.5528 -121.3775 43° Northeast 391 450 21,800 960 Climbing Oakland Center
11:28AM 38.6542 -121.2592 42° Northeast 416 479 22,900 900 Climbing Oakland Center
11:29AM 38.7233 -121.1742 44° Northeast 411 473 23,700 900 Climbing Oakland Center
11:30AM 38.8242 -121.0528 43° Northeast 414 476 24,800 960 Climbing Oakland Center
11:31AM 38.9072 -120.9517 43° Northeast 412 474 25,700 840 Climbing Oakland Center
11:32AM 38.9919 -120.8497 43° Northeast 417 480 26,600 780 Climbing Oakland Center
11:33AM 39.0772 -120.7464 43° Northeast 420 483 27,300 660 Climbing Oakland Center
11:34AM 39.1631 -120.6425 43° Northeast 423 487 28,000 600 Climbing Oakland Center
11:35AM 39.2472 -120.5356 45° Northeast 426 490 28,600 480 Climbing Oakland Center
11:36AM 39.3350 -120.4297 43° Northeast 430 495 29,100 480 Climbing Oakland Center
11:37AM 39.4239 -120.3225 43° Northeast 436 502 29,600 480 Climbing Oakland Center
11:38AM 39.5111 -120.2131 44° Northeast 437 503 30,100 480 Climbing Oakland Center
11:39AM 39.6169 -120.0847 43° Northeast 444 511 30,700 420 Climbing Oakland Center
11:40AM 39.7047 -119.9733 44° Northeast 441 507 31,000 120 Climbing Oakland Center
11:41AM 39.7939 -119.8594 44° Northeast 446 513 31,000  Level Oakland Center
11:42AM 39.8856 -119.7444 44° Northeast 453 521 31,000  Level Oakland Center
11:43AM 39.9797 -119.6272 44° Northeast 463 533 31,000  Level Oakland Center
11:44AM 40.0731 -119.5086 44° Northeast 465 535 31,000  Level Oakland Center
11:45AM 40.1650 -119.3903 45° Northeast 463 533 31,000  Level Oakland Center
11:46AM 40.2594 -119.2708 44° Northeast 468 539 31,000  Level Oakland Center
11:47AM 40.3522 -119.1508 45° Northeast 467 537 31,000  Level Oakland Center
11:48AM 40.4639 -119.0061 45° Northeast 470 541 31,000  Level Oakland Center
11:49AM 40.5583 -118.8856 44° Northeast 472 543 31,000  Level Oakland Center
11:50AM 40.6511 -118.7647 45° Northeast 470 541 31,000  Level Oakland Center
11:51AM 40.7450 -118.6417 45° Northeast 472 543 31,000  Level Oakland Center
11:53AM 40.8456 -118.5106 45° Northeast 475 547 31,000  Level Salt Lake Center
11:54AM 40.9367 -118.3933 44° Northeast 476 548 31,000  Level Salt Lake Center
11:55AM 41.0414 -118.2533 45° Northeast 477 549 31,000  Level Salt Lake Center
11:56AM 41.1306 -118.1350 45° Northeast 475 547 31,000  Level Salt Lake Center
11:57AM 41.2353 -117.9964 45° Northeast 474 545 31,000  Level Salt Lake Center
11:58AM 41.3250 -117.8758 45° Northeast 476 548 31,000  Level Salt Lake Center
11:59AM 41.4283 -117.7358 45° Northeast 474 545 31,000  Level Salt Lake Center
12:00PM 41.5178 -117.6150 45° Northeast 475 547 31,000  Level Salt Lake Center
12:01PM 41.6069 -117.4942 45° Northeast 475 547 31,000  Level Salt Lake Center
12:02PM 41.7106 -117.3536 45° Northeast 474 545 31,000  Level Salt Lake Center
12:03PM 41.8000 -117.2272 46° Northeast 476 548 31,000  Level Salt Lake Center
12:04PM 41.9025 -117.0869 46° Northeast 470 541 31,000  Level Salt Lake Center
12:05PM 41.9914 -116.9625 46° Northeast 480 552 31,000  Level Salt Lake Center
12:06PM 42.0942 -116.8203 46° Northeast 474 545 31,000  Level Salt Lake Center
12:07PM 42.1919 -116.6808 47° Northeast 485 558 31,000  Level Salt Lake Center
12:08PM 42.2806 -116.5575 46° Northeast 479 551 31,000  Level Salt Lake Center
12:09PM 42.3836 -116.4139 46° Northeast 478 550 31,000  Level Salt Lake Center
12:10PM 42.4719 -116.2894 46° Northeast 479 551 31,000  Level Salt Lake Center
12:11PM 42.5600 -116.1647 46° Northeast 478 550 31,000  Level Salt Lake Center
12:12PM 42.6622 -116.0186 46° Northeast 478 550 31,000  Level Salt Lake Center
12:13PM 42.7486 -115.8925 47° Northeast 477 549 31,000  Level Salt Lake Center
12:14PM 42.8508 -115.7464 46° Northeast 478 550 31,000  Level Salt Lake Center
12:15PM 42.9386 -115.6197 47° Northeast 479 551 31,000  Level Salt Lake Center
12:16PM 43.0417 -115.4692 47° Northeast 483 556 31,000  Level Salt Lake Center
12:17PM 43.1283 -115.3436 47° Northeast 478 550 31,000  Level Salt Lake Center
12:18PM 43.2303 -115.1950 47° Northeast 479 551 31,000  Level Salt Lake Center
12:19PM 43.3169 -115.0672 47° Northeast 478 550 31,000  Level Salt Lake Center
12:21PM 43.4149 -114.9209 47° Northeast  Level FlightAware Approximate
12:21PM 43.5044 -114.7881 47° Northeast 480 552 31,000  Level Salt Lake Center
12:23PM 43.6061 -114.6364 47° Northeast 484 557 31,000  Level Salt Lake Center
12:24PM 43.6925 -114.5067 47° Northeast 481 554 31,000  Level Salt Lake Center
12:25PM 43.7931 -114.3553 47° Northeast 478 550 31,000  Level Salt Lake Center
12:26PM 43.8789 -114.2233 48° Northeast 479 551 31,000  Level Salt Lake Center
12:27PM 43.9794 -114.0694 48° Northeast 482 555 31,000  Level Salt Lake Center
12:28PM 44.0653 -113.9386 48° Northeast 481 554 31,000  Level Salt Lake Center
12:29PM 44.1619 -113.7833 49° Northeast 477 549 31,000  Level Salt Lake Center
12:30PM 44.2478 -113.6511 48° Northeast 479 551 31,000  Level Salt Lake Center
12:31PM 44.3344 -113.5172 48° Northeast 484 557 31,000  Level Salt Lake Center
12:32PM 44.4331 -113.3614 48° Northeast 481 554 31,000  Level Salt Lake Center
12:33PM 44.5186 -113.2275 48° Northeast 480 552 31,000  Level Salt Lake Center
12:34PM 44.6194 -113.0697 48° Northeast 486 559 31,000  Level Salt Lake Center
12:35PM 44.7025 -112.9344 49° Northeast 481 554 31,000  Level Salt Lake Center
12:36PM 44.8017 -112.7775 48° Northeast 479 551 31,000  Level Salt Lake Center
12:37PM 44.8853 -112.6414 49° Northeast 480 552 31,000 -360 Level Salt Lake Center
12:38PM 44.9842 -112.4822 49° Northeast 481 554 30,300 -1,800 Descending Salt Lake Center
12:39PM 45.0694 -112.3444 49° Northeast 484 557 27,300 -2,880 Descending Salt Lake Center
12:40PM 45.1533 -112.2069 49° Northeast 481 554 24,400 -3,180 Descending Salt Lake Center
12:41PM 45.2514 -112.0450 49° Northeast 462 532 20,800 -3,240 Descending Salt Lake Center
12:42PM 45.3308 -111.9136 49° Northeast 445 512 17,800 -2,760 Descending Salt Lake Center
12:43PM 45.4072 -111.7883 49° Northeast 427 491 15,100 -2,760 Descending Salt Lake Center
12:44PM 45.4800 -111.6672 49° Northeast 408 470 12,200 -1,500 Descending Salt Lake Center
12:45PM 45.5467 -111.5567 49° Northeast 374 430 12,000 -900 Descending Salt Lake Center
12:46PM 45.6047 -111.4603 49° Northeast 337 388 10,400 -1,500 Descending Salt Lake Center
12:47PM 45.6631 -111.3750 46° Northeast 317 365 9,000 -1,080 Descending Salt Lake Center
12:48PM 45.7253 -111.2958 42° Northeast 267 307 8,200 -780 Descending Salt Lake Center